Rittushinmaru — JD4016 — position and weather

sailwx.info

Track history (hours):
 
Tides and Currents Weather Stations Pressure Air Temp Water Temp Dewpoint Dewpoint Depression Visibility Wind Speed Wind Dir Waves Ship Positions

Rittushinmaru

Last reported at 2018-Jun-12 16:57 UTC. Time now 2018-Jun-21 10:05 UTC.
Position N 33°53' E 134°60'.
Warning: this ship's position is 8 days out of date.

Length 72 m; draft 4.5 m.

Type: Cargo ship. MMSI: 431007878.

Date/timePositionNaut miles runAvg speedWind from/ knotsBaromVisibWave heightAir tempDewpointWater temp
2018-Jun-12 16:57N 33°53' E 134°60'1311.2
2018-Jun-12 15:46N 34°03' E 134°49'1111.3
2018-Jun-12 14:50N 34°11' E 134°41'1111.5
2018-Jun-12 13:52N 34°18' E 134°30'410.8
2018-Jun-12 13:28N 34°19' E 134°25'8 0.3
2018-Jun-11 09:41N 34°27' E 134°24'212.4
2018-Jun-11 09:29N 34°29' E 134°26'612.1
2018-Jun-11 08:58N 34°32' E 134°33'612.3
2018-Jun-11 08:29N 34°36' E 134°38'612.2
2018-Jun-11 08:00N 34°39' E 134°44'6 8.5
2018-Jun-11 07:19N 34°42' E 134°50'0 0.0
2018-Jun-11 06:57N 34°42' E 134°50'0 0.0
2018-Jun-11 05:58N 34°42' E 134°50'0 0.0
2018-Jun-11 05:18N 34°42' E 134°50'0 0.0
2018-Jun-11 04:58N 34°42' E 134°50'0 0.0
2018-Jun-11 04:30N 34°42' E 134°50'0 0.0
2018-Jun-11 03:14N 34°42' E 134°50'0 0.0
2018-Jun-11 02:52N 34°42' E 134°50'0 0.0
2018-Jun-11 02:19N 34°42' E 134°50'0 0.0
2018-Jun-11 01:48N 34°42' E 134°50'0 0.0
2018-Jun-11 01:19N 34°42' E 134°50'0 0.0
2018-Jun-10 23:39N 34°42' E 134°50'0 0.0
2018-Jun-09 23:37N 34°42' E 134°50'0 0.0
2018-Jun-09 23:30N 34°42' E 134°50'9 9.0
2018-Jun-09 22:26N 34°35' E 134°43'5 8.7
2018-Jun-09 21:55N 34°30' E 134°43'410.5
2018-Jun-09 21:30N 34°26' E 134°42'510.5
2018-Jun-09 21:00N 34°21' E 134°39'1610.4
2018-Jun-09 19:29N 34°06' E 134°46'511.1
2018-Jun-09 19:00N 34°02' E 134°50'510.9
2018-Jun-09 18:30N 33°59' E 134°55'510.5
2018-Jun-09 18:00N 33°55' E 134°59'  
Track history (hours):
 
Tides and Currents Weather Stations Pressure Air Temp Water Temp Dewpoint Dewpoint Depression Visibility Wind Speed Wind Dir Waves Ship Positions

Rittushinmaru

Last reported at 2018-Jun-12 16:57 UTC. Time now 2018-Jun-21 10:05 UTC.
Position N 33°53' E 134°60'.
Warning: this ship's position is 8 days out of date.

Length 72 m; draft 4.5 m.

Type: Cargo ship. MMSI: 431007878.

Date/timePositionNaut miles runAvg speedWind from/ knotsBaromVisibWave heightAir tempDewpointWater temp
2018-Jun-12 16:57N 33°53' E 134°60'1311.2
2018-Jun-12 15:46N 34°03' E 134°49'1111.3
2018-Jun-12 14:50N 34°11' E 134°41'1111.5
2018-Jun-12 13:52N 34°18' E 134°30'410.8
2018-Jun-12 13:28N 34°19' E 134°25'8 0.3
2018-Jun-11 09:41N 34°27' E 134°24'212.4
2018-Jun-11 09:29N 34°29' E 134°26'612.1
2018-Jun-11 08:58N 34°32' E 134°33'612.3
2018-Jun-11 08:29N 34°36' E 134°38'612.2
2018-Jun-11 08:00N 34°39' E 134°44'6 8.5
2018-Jun-11 07:19N 34°42' E 134°50'0 0.0
2018-Jun-11 06:57N 34°42' E 134°50'0 0.0
2018-Jun-11 05:58N 34°42' E 134°50'0 0.0
2018-Jun-11 05:18N 34°42' E 134°50'0 0.0
2018-Jun-11 04:58N 34°42' E 134°50'0 0.0
2018-Jun-11 04:30N 34°42' E 134°50'0 0.0
2018-Jun-11 03:14N 34°42' E 134°50'0 0.0
2018-Jun-11 02:52N 34°42' E 134°50'0 0.0
2018-Jun-11 02:19N 34°42' E 134°50'0 0.0
2018-Jun-11 01:48N 34°42' E 134°50'0 0.0
2018-Jun-11 01:19N 34°42' E 134°50'0 0.0
2018-Jun-10 23:39N 34°42' E 134°50'0 0.0
2018-Jun-09 23:37N 34°42' E 134°50'0 0.0
2018-Jun-09 23:30N 34°42' E 134°50'9 9.0
2018-Jun-09 22:26N 34°35' E 134°43'5 8.7
2018-Jun-09 21:55N 34°30' E 134°43'410.5
2018-Jun-09 21:30N 34°26' E 134°42'510.5
2018-Jun-09 21:00N 34°21' E 134°39'1610.4
2018-Jun-09 19:29N 34°06' E 134°46'511.1
2018-Jun-09 19:00N 34°02' E 134°50'510.9
2018-Jun-09 18:30N 33°59' E 134°55'510.5
2018-Jun-09 18:00N 33°55' E 134°59'  

Dump ship's entire track history